createdAt,value
2018-05-17T00:00:26.486Z,94.30
2018-05-17T00:02:54.045Z,94.30
2018-05-17T00:05:21.566Z,94.10
2018-05-17T00:07:49.870Z,94.60
2018-05-17T00:10:17.434Z,94.60
2018-05-17T00:12:44.954Z,94.40
2018-05-17T00:15:12.488Z,94.20
2018-05-17T00:17:40.034Z,94.20
2018-05-17T00:20:07.558Z,93.80
2018-05-17T00:22:35.085Z,94.00
2018-05-17T00:25:02.625Z,94.10
2018-05-17T00:27:30.248Z,94.30
2018-05-17T00:29:58.550Z,94.20
2018-05-17T00:32:26.858Z,94.10
2018-05-17T00:34:54.363Z,94.10
2018-05-17T00:37:21.880Z,94.30
2018-05-17T00:39:49.429Z,94.40
2018-05-17T00:42:17.705Z,94.40
2018-05-17T00:44:45.984Z,94.50
2018-05-17T00:47:14.293Z,94.40
2018-05-17T00:49:41.818Z,94.30
2018-05-17T00:52:10.099Z,94.60
2018-05-17T00:54:38.419Z,94.50
2018-05-17T00:57:05.934Z,94.50
2018-05-17T00:59:33.466Z,94.60
2018-05-17T01:02:01.000Z,94.50
2018-05-17T01:04:28.582Z,94.60
2018-05-17T01:06:56.106Z,94.80
2018-05-17T01:09:24.524Z,94.40
2018-05-17T01:11:52.927Z,94.40
2018-05-17T01:14:20.460Z,94.70
2018-05-17T01:16:48.005Z,94.80
2018-05-17T01:19:16.289Z,94.30
2018-05-17T01:21:44.566Z,94.40
2018-05-17T01:24:12.864Z,94.50
2018-05-17T01:26:41.146Z,94.40
2018-05-17T01:29:09.618Z,94.50
2018-05-17T01:31:37.942Z,94.50
2018-05-17T01:34:05.481Z,94.50
2018-05-17T01:36:33.010Z,94.30
2018-05-17T01:39:00.559Z,94.40
2018-05-17T01:41:28.115Z,94.30
2018-05-17T01:43:55.621Z,94.30
2018-05-17T01:46:23.935Z,94.40
2018-05-17T01:48:51.758Z,94.40
2018-05-17T01:51:19.280Z,94.50
2018-05-17T01:53:46.831Z,94.60
2018-05-17T01:56:14.355Z,94.00
2018-05-17T01:58:42.633Z,94.30
2018-05-17T02:01:10.171Z,94.20
2018-05-17T02:03:37.689Z,94.40
2018-05-17T02:06:06.007Z,94.40
2018-05-17T02:08:33.560Z,94.30
2018-05-17T02:11:01.232Z,94.30
2018-05-17T02:13:28.755Z,94.20
2018-05-17T02:15:57.063Z,94.30
2018-05-17T02:18:24.589Z,94.30
2018-05-17T02:20:52.113Z,94.20
2018-05-17T02:23:19.654Z,94.70
2018-05-17T02:25:47.172Z,94.40
2018-05-17T02:28:14.689Z,94.40
2018-05-17T02:30:42.282Z,94.40
2018-05-17T02:33:09.797Z,94.50
2018-05-17T02:35:37.314Z,94.30
2018-05-17T02:38:04.858Z,94.20
2018-05-17T02:40:32.382Z,94.20
2018-05-17T02:43:00.682Z,94.20
2018-05-17T02:45:28.230Z,94.10
2018-05-17T02:47:55.757Z,94.50
2018-05-17T02:50:23.293Z,94.00
2018-05-17T02:52:50.839Z,94.00
2018-05-17T02:55:18.362Z,93.70
2018-05-17T02:57:45.891Z,94.40
2018-05-17T03:00:13.439Z,93.90
2018-05-17T03:02:40.957Z,93.90
2018-05-17T03:05:09.985Z,93.90
2018-05-17T03:07:37.541Z,93.90
2018-05-17T03:10:05.816Z,94.10
2018-05-17T03:12:34.093Z,94.00
2018-05-17T03:15:02.413Z,94.10
2018-05-17T03:17:29.950Z,94.10
2018-05-17T03:19:58.245Z,94.20
2018-05-17T03:22:25.777Z,94.20
2018-05-17T03:24:53.297Z,94.20
2018-05-17T03:27:20.826Z,93.90
2018-05-17T03:29:49.138Z,94.10
2018-05-17T03:32:16.720Z,94.10
2018-05-17T03:34:44.241Z,94.20
2018-05-17T03:37:11.783Z,94.00
2018-05-17T03:39:40.069Z,93.80
2018-05-17T03:42:08.366Z,94.30
2018-05-17T03:44:36.768Z,94.00
2018-05-17T03:47:04.291Z,94.00
2018-05-17T03:49:32.585Z,94.30
2018-05-17T03:52:00.895Z,93.80
2018-05-17T03:54:28.410Z,93.70
2018-05-17T03:56:55.933Z,93.60
2018-05-17T03:59:23.495Z,93.80
2018-05-17T04:02:02.993Z,94.10
2018-05-17T04:04:42.407Z,93.90
2018-05-17T04:07:09.945Z,93.40
2018-05-17T04:09:37.458Z,93.80
2018-05-17T04:12:05.758Z,93.90
2018-05-17T04:17:07.334Z,94.10
2018-05-17T04:19:34.857Z,94.00
2018-05-17T04:22:03.885Z,94.00
2018-05-17T04:24:32.187Z,93.80
2018-05-17T04:26:59.778Z,93.80
2018-05-17T04:29:27.294Z,93.80
2018-05-17T04:31:55.685Z,94.10
2018-05-17T04:34:24.005Z,94.40
2018-05-17T04:36:51.521Z,94.40
2018-05-17T04:39:19.837Z,94.10
2018-05-17T04:41:47.349Z,94.10
2018-05-17T04:44:15.652Z,94.30
2018-05-17T04:46:43.948Z,94.00
2018-05-17T04:49:11.544Z,93.90
2018-05-17T04:51:38.993Z,94.00
2018-05-17T04:54:06.557Z,93.90
2018-05-17T04:56:34.083Z,93.70
2018-05-17T04:59:02.393Z,94.00
2018-05-17T05:01:29.949Z,94.00
2018-05-17T05:03:57.541Z,94.00
2018-05-17T05:06:25.065Z,93.80
2018-05-17T05:08:53.373Z,93.60
2018-05-17T05:11:20.904Z,93.50
2018-05-17T05:13:49.193Z,93.50
2018-05-17T05:16:17.513Z,93.20
2018-05-17T05:18:45.078Z,93.20
2018-05-17T05:21:12.627Z,93.60
2018-05-17T05:23:40.165Z,93.30
2018-05-17T05:26:08.460Z,93.50
2018-05-17T05:28:35.986Z,93.50
2018-05-17T05:31:03.601Z,93.60
2018-05-17T05:33:31.122Z,93.40
2018-05-17T05:35:59.516Z,93.30
2018-05-17T05:38:27.062Z,93.60
2018-05-17T05:40:56.085Z,93.70
2018-05-17T05:43:24.382Z,93.70
2018-05-17T05:45:52.707Z,94.20
2018-05-17T05:48:20.226Z,94.20
2018-05-17T05:50:48.533Z,94.30
2018-05-17T05:53:16.061Z,94.30
2018-05-17T05:55:44.411Z,95.10
2018-05-17T05:58:11.935Z,95.00
2018-05-17T06:00:39.485Z,95.10
2018-05-17T06:03:08.199Z,95.00
2018-05-17T06:05:35.767Z,95.00
2018-05-17T06:08:03.319Z,95.20
2018-05-17T06:10:30.845Z,94.90
2018-05-17T06:12:59.159Z,95.20
2018-05-17T06:15:26.712Z,95.10
2018-05-17T06:17:54.985Z,95.20
2018-05-17T06:20:23.274Z,95.20
2018-05-17T06:22:51.580Z,95.20
2018-05-17T06:25:19.098Z,95.20
2018-05-17T06:27:47.421Z,95.10
2018-05-17T06:30:14.986Z,95.10
2018-05-17T06:32:42.513Z,94.70
2018-05-17T06:35:10.814Z,95.20
2018-05-17T06:37:39.281Z,94.60
2018-05-17T06:40:06.750Z,94.60
2018-05-17T06:42:35.044Z,94.20
2018-05-17T06:45:03.357Z,94.40
2018-05-17T06:47:30.913Z,94.40
2018-05-17T06:49:58.449Z,94.50
2018-05-17T06:52:26.757Z,94.30
2018-05-17T06:54:54.281Z,94.30
2018-05-17T06:57:21.809Z,94.40
2018-05-17T06:59:49.371Z,94.70
2018-05-17T07:02:16.893Z,94.40
2018-05-17T07:04:45.169Z,94.50
2018-05-17T07:07:13.493Z,94.60
2018-05-17T07:09:41.011Z,94.50
2018-05-17T07:12:09.301Z,95.00
2018-05-17T07:14:37.616Z,95.20
2018-05-17T07:17:05.137Z,95.50
2018-05-17T07:19:33.426Z,95.30
2018-05-17T07:22:01.738Z,94.90
2018-05-17T07:24:29.281Z,94.90
2018-05-17T07:26:56.843Z,95.20
2018-05-17T07:29:24.432Z,95.00
2018-05-17T07:31:51.970Z,94.60
2018-05-17T07:34:20.246Z,95.30
2018-05-17T07:36:48.557Z,95.00
2018-05-17T07:39:16.246Z,95.00
2018-05-17T07:41:43.734Z,95.10
2018-05-17T07:44:11.268Z,94.80
2018-05-17T07:46:38.824Z,94.70
2018-05-17T07:49:06.374Z,94.80
2018-05-17T07:51:33.917Z,94.90
2018-05-17T07:54:02.200Z,94.60
2018-05-17T07:56:30.490Z,94.70
2018-05-17T07:58:58.041Z,94.60
2018-05-17T08:01:26.329Z,94.00
2018-05-17T08:03:54.623Z,94.10
2018-05-17T08:06:22.165Z,94.10
2018-05-17T08:08:50.449Z,94.30
2018-05-17T08:11:18.763Z,94.40
2018-05-17T08:13:47.113Z,94.40
2018-05-17T08:16:15.398Z,94.50
2018-05-17T08:18:43.681Z,94.30
2018-05-17T08:21:11.997Z,94.40
2018-05-17T08:23:39.549Z,94.30
2018-05-17T08:26:07.832Z,94.50
2018-05-17T08:28:35.389Z,94.50
2018-05-17T08:31:02.915Z,93.80
2018-05-17T08:33:30.433Z,93.80
2018-05-17T08:35:57.966Z,93.80
2018-05-17T08:38:26.238Z,93.80
2018-05-17T08:40:54.770Z,93.80
2018-05-17T08:43:22.314Z,93.70
2018-05-17T08:45:49.825Z,93.40
2018-05-17T08:48:17.346Z,94.00
2018-05-17T08:50:44.901Z,93.80
2018-05-17T08:53:12.462Z,94.20
2018-05-17T08:55:40.089Z,94.30
2018-05-17T08:58:09.151Z,94.10
2018-05-17T09:00:36.717Z,94.10
2018-05-17T09:03:04.250Z,93.50
2018-05-17T09:05:32.665Z,93.60
2018-05-17T09:08:00.194Z,93.50
2018-05-17T09:10:28.483Z,93.60
2018-05-17T09:12:56.045Z,93.50
2018-05-17T09:15:23.569Z,92.90
2018-05-17T09:17:51.108Z,93.00
2018-05-17T09:20:18.761Z,92.50
2018-05-17T09:22:46.174Z,92.80
2018-05-17T09:25:15.218Z,91.90
2018-05-17T09:27:42.749Z,91.90
2018-05-17T09:30:11.037Z,91.70
2018-05-17T09:32:39.326Z,93.00
2018-05-17T09:35:07.651Z,91.90
2018-05-17T09:37:35.166Z,91.90
2018-05-17T09:40:04.104Z,91.40
2018-05-17T09:42:31.741Z,91.40
2018-05-17T09:45:00.024Z,90.10
2018-05-17T09:47:28.163Z,90.10
2018-05-17T09:49:55.716Z,88.20
2018-05-17T09:52:23.240Z,87.30
2018-05-17T09:54:50.858Z,85.60
2018-05-17T09:57:18.344Z,85.00
2018-05-17T09:59:46.647Z,84.90
2018-05-17T10:02:14.166Z,84.80
2018-05-17T10:04:41.778Z,86.90
2018-05-17T10:07:09.297Z,85.10
2018-05-17T10:09:36.816Z,85.10
2018-05-17T10:12:04.370Z,85.50
2018-05-17T10:14:31.945Z,86.40
2018-05-17T10:17:00.203Z,87.70
2018-05-17T10:19:28.500Z,88.60
2018-05-17T10:21:56.036Z,88.50
2018-05-17T10:24:24.173Z,90.20
2018-05-17T10:26:51.718Z,90.50
2018-05-17T10:29:19.257Z,90.60
2018-05-17T10:31:46.856Z,90.70
2018-05-17T10:34:14.397Z,90.60
2018-05-17T10:36:41.954Z,91.90
2018-05-17T10:39:09.531Z,91.40
2018-05-17T10:41:37.076Z,91.50
2018-05-17T10:44:05.434Z,91.10
2018-05-17T10:46:32.954Z,91.10
2018-05-17T10:49:00.549Z,91.40
2018-05-17T10:51:28.089Z,91.40
2018-05-17T10:53:55.638Z,90.90
2018-05-17T10:56:23.205Z,91.50
2018-05-17T10:58:50.725Z,91.70
2018-05-17T11:01:18.260Z,91.50
2018-05-17T11:03:45.790Z,91.40
2018-05-17T11:06:13.314Z,90.90
2018-05-17T11:08:40.842Z,91.10
2018-05-17T11:11:08.392Z,91.20
2018-05-17T11:13:35.921Z,91.20
2018-05-17T11:16:04.254Z,91.60
2018-05-17T11:18:31.809Z,91.60
2018-05-17T11:20:59.330Z,91.70
2018-05-17T11:23:27.624Z,91.30
2018-05-17T11:25:55.941Z,90.80
2018-05-17T11:28:23.461Z,90.80
2018-05-17T11:30:51.754Z,90.50
2018-05-17T11:33:19.295Z,90.50
2018-05-17T11:35:47.606Z,88.20
2018-05-17T11:38:15.132Z,88.40
2018-05-17T11:40:44.201Z,83.10
2018-05-17T11:43:11.725Z,83.10
2018-05-17T11:45:40.053Z,81.20
2018-05-17T11:48:07.611Z,81.10
2018-05-17T11:50:35.126Z,81.10
2018-05-17T11:53:03.426Z,81.60
2018-05-17T11:55:30.985Z,81.50
2018-05-17T11:57:59.269Z,83.10
2018-05-17T12:00:27.567Z,84.80
2018-05-17T12:02:55.123Z,84.60
2018-05-17T12:05:22.664Z,85.10
2018-05-17T12:07:50.961Z,82.90
2018-05-17T12:10:18.493Z,82.80
2018-05-17T12:12:46.021Z,85.00
2018-05-17T12:15:13.542Z,85.40
2018-05-17T12:17:41.205Z,87.80
2018-05-17T12:20:09.494Z,87.30
2018-05-17T12:22:37.790Z,88.40
2018-05-17T12:25:05.329Z,88.50
2018-05-17T12:27:33.605Z,84.00
2018-05-17T12:30:01.897Z,84.80
2018-05-17T12:32:29.489Z,84.70
2018-05-17T12:34:57.006Z,85.50
2018-05-17T12:37:26.047Z,86.40
2018-05-17T12:39:53.664Z,86.40
2018-05-17T12:42:21.186Z,85.40
2018-05-17T12:44:49.713Z,85.80
2018-05-17T12:47:17.389Z,87.20
2018-05-17T12:49:46.420Z,85.90
2018-05-17T12:52:13.938Z,85.90
2018-05-17T12:54:41.482Z,88.80
2018-05-17T12:57:09.049Z,88.50
2018-05-17T12:59:36.566Z,89.10
2018-05-17T13:02:04.909Z,86.50
2018-05-17T13:04:32.438Z,86.50
2018-05-17T13:06:59.964Z,85.80
2018-05-17T13:09:28.301Z,82.80
2018-05-17T13:11:55.830Z,82.60
2018-05-17T13:14:23.357Z,84.50
2018-05-17T13:16:50.902Z,84.50
2018-05-17T13:19:18.421Z,84.90
2018-05-17T13:21:45.939Z,84.50
2018-05-17T13:24:13.491Z,80.50
2018-05-17T13:26:41.016Z,81.40
2018-05-17T13:29:08.562Z,82.30
2018-05-17T13:31:36.870Z,81.30
2018-05-17T13:34:04.390Z,81.20
2018-05-17T13:36:33.418Z,79.80
2018-05-17T13:39:01.722Z,78.40
2018-05-17T13:41:29.274Z,78.60
2018-05-17T13:43:56.797Z,80.00
2018-05-17T13:46:24.364Z,78.40
2018-05-17T13:48:52.751Z,82.20
2018-05-17T13:51:20.294Z,82.20
2018-05-17T13:53:47.846Z,82.10
2018-05-17T13:56:15.373Z,79.20
2018-05-17T13:58:43.653Z,77.20
2018-05-17T14:01:11.962Z,77.10
2018-05-17T14:03:39.485Z,77.10
2018-05-17T14:06:07.761Z,77.20
2018-05-17T14:08:35.341Z,77.20
2018-05-17T14:11:02.940Z,77.60
2018-05-17T14:13:30.496Z,75.10
2018-05-17T14:15:58.046Z,76.10
2018-05-17T14:18:25.570Z,76.80
2018-05-17T14:20:53.110Z,78.40
2018-05-17T14:23:20.687Z,77.70
2018-05-17T14:25:48.208Z,77.00
2018-05-17T14:28:15.727Z,76.30
2018-05-17T14:30:43.276Z,74.20
2018-05-17T14:33:10.829Z,77.50
2018-05-17T14:35:38.349Z,74.80
2018-05-17T14:38:06.769Z,74.80
2018-05-17T14:40:34.297Z,74.80
2018-05-17T14:43:02.585Z,72.90
2018-05-17T14:45:30.911Z,74.70
2018-05-17T14:47:58.446Z,74.70
2018-05-17T14:50:26.301Z,73.80
2018-05-17T14:52:54.625Z,71.40
2018-05-17T14:55:22.168Z,71.30
2018-05-17T14:57:49.677Z,69.80
2018-05-17T15:00:18.720Z,70.10
2018-05-17T15:02:46.282Z,70.10
2018-05-17T15:05:13.805Z,71.00
2018-05-17T15:07:41.346Z,73.10
2018-05-17T15:10:08.862Z,75.30
2018-05-17T15:12:37.145Z,72.20
2018-05-17T15:15:05.453Z,73.40
2018-05-17T15:17:32.966Z,73.30
2018-05-17T15:20:00.497Z,70.10
2018-05-17T15:22:28.033Z,71.80
2018-05-17T15:24:55.548Z,72.20
2018-05-17T15:27:23.171Z,71.50
2018-05-17T15:29:50.764Z,72.60
2018-05-17T15:32:19.001Z,73.40
2018-05-17T15:34:46.526Z,73.60
2018-05-17T15:37:14.157Z,74.00
2018-05-17T15:39:41.703Z,75.40
2018-05-17T15:42:09.299Z,75.30
2018-05-17T15:44:36.864Z,74.90
2018-05-17T15:47:04.389Z,77.10
2018-05-17T15:49:31.912Z,77.30
2018-05-17T15:51:59.507Z,77.40
2018-05-17T15:54:27.800Z,76.00
2018-05-17T15:56:56.094Z,77.70
2018-05-17T15:59:23.666Z,77.70
2018-05-17T16:01:51.181Z,77.00
2018-05-17T16:04:18.705Z,74.70
2018-05-17T16:06:46.245Z,72.20
2018-05-17T16:09:13.764Z,72.10
2018-05-17T16:11:41.284Z,70.60
2018-05-17T16:14:08.821Z,70.40
2018-05-17T16:16:37.127Z,72.60
2018-05-17T16:19:04.649Z,72.50
2018-05-17T16:21:32.962Z,70.00
2018-05-17T16:24:00.486Z,70.00
2018-05-17T16:26:27.999Z,70.20
2018-05-17T16:28:55.542Z,71.40
2018-05-17T16:31:23.834Z,72.40
2018-05-17T16:33:51.370Z,72.50
2018-05-17T16:36:18.970Z,73.70
2018-05-17T16:38:46.546Z,73.60
2018-05-17T16:41:14.066Z,72.20
2018-05-17T16:43:41.625Z,71.70
2018-05-17T16:46:09.149Z,72.60
2018-05-17T16:48:36.755Z,72.50
2018-05-17T16:51:05.020Z,75.50
2018-05-17T16:53:33.397Z,75.40
2018-05-17T16:56:00.918Z,76.50
2018-05-17T16:58:28.485Z,74.90
2018-05-17T17:00:56.043Z,75.40
2018-05-17T17:03:23.599Z,77.40
2018-05-17T17:05:51.912Z,75.60
2018-05-17T17:08:19.441Z,75.60
2018-05-17T17:10:47.727Z,78.50
2018-05-17T17:13:16.032Z,77.50
2018-05-17T17:15:43.609Z,77.50
2018-05-17T17:18:11.854Z,79.40
2018-05-17T17:20:40.149Z,79.30
2018-05-17T17:23:07.673Z,79.20
2018-05-17T17:25:35.960Z,77.90
2018-05-17T17:28:03.519Z,77.90
2018-05-17T17:30:31.813Z,80.30
2018-05-17T17:32:59.329Z,80.20
2018-05-17T17:35:26.887Z,80.70
2018-05-17T17:37:54.398Z,80.20
2018-05-17T17:40:21.910Z,80.50
2018-05-17T17:42:49.452Z,80.40
2018-05-17T17:45:16.998Z,79.30
2018-05-17T17:47:44.512Z,80.10
2018-05-17T17:50:12.043Z,80.30
2018-05-17T17:52:39.573Z,80.40
2018-05-17T17:55:07.180Z,78.10
2018-05-17T17:57:34.739Z,77.10
2018-05-17T18:00:03.106Z,77.00
2018-05-17T18:02:31.400Z,78.50
2018-05-17T18:04:59.716Z,77.30
2018-05-17T18:07:27.233Z,77.30
2018-05-17T18:09:55.522Z,79.30
2018-05-17T18:12:23.833Z,78.20
2018-05-17T18:14:51.362Z,78.20
2018-05-17T18:17:19.695Z,80.50
2018-05-17T18:19:47.333Z,80.40
2018-05-17T18:22:14.858Z,82.20
2018-05-17T18:24:43.981Z,82.50
2018-05-17T18:27:11.480Z,82.50
2018-05-17T18:29:38.997Z,82.30
2018-05-17T18:32:07.301Z,83.20
2018-05-17T18:34:34.833Z,83.20
2018-05-17T18:37:02.346Z,83.10
2018-05-17T18:39:29.862Z,82.60
2018-05-17T18:41:57.422Z,82.50
2018-05-17T18:44:25.709Z,84.50
2018-05-17T18:46:54.736Z,84.30
2018-05-17T18:49:23.241Z,82.50
2018-05-17T18:51:50.768Z,82.40
2018-05-17T18:54:19.047Z,84.70
2018-05-17T18:56:46.842Z,84.70
2018-05-17T18:59:14.363Z,86.50
2018-05-17T19:01:41.935Z,85.70
2018-05-17T19:04:09.430Z,84.90
2018-05-17T19:06:37.706Z,85.70
2018-05-17T19:09:06.012Z,85.70
2018-05-17T19:11:33.546Z,85.70
2018-05-17T19:14:01.840Z,86.00
2018-05-17T19:16:30.161Z,86.90
2018-05-17T19:18:57.806Z,86.90
2018-05-17T19:21:25.422Z,86.60
2018-05-17T19:23:52.943Z,87.20
2018-05-17T19:26:20.529Z,87.20
2018-05-17T19:28:48.054Z,87.70
2018-05-17T19:31:15.686Z,87.60
2018-05-17T19:33:44.061Z,86.90
2018-05-17T19:36:11.595Z,86.90
2018-05-17T19:38:39.205Z,86.60
2018-05-17T19:41:06.770Z,87.00
2018-05-17T19:43:35.188Z,87.50
2018-05-17T19:46:02.786Z,87.40
2018-05-17T19:48:30.343Z,87.00
2018-05-17T19:50:57.895Z,87.10
2018-05-17T19:53:25.514Z,87.80
2018-05-17T19:55:53.945Z,87.70
2018-05-17T19:58:21.681Z,87.60
2018-05-17T20:00:49.998Z,88.50
2018-05-17T20:03:17.659Z,88.50
2018-05-17T20:05:45.191Z,88.80
2018-05-17T20:08:13.549Z,88.90
2018-05-17T20:10:42.774Z,89.60
2018-05-17T20:13:11.137Z,89.30
2018-05-17T20:15:38.728Z,89.30
2018-05-17T20:18:07.051Z,90.20
2018-05-17T20:20:34.617Z,89.60
2018-05-17T20:23:02.203Z,90.10
2018-05-17T20:25:31.346Z,90.40
2018-05-17T20:27:59.072Z,90.40
2018-05-17T20:30:26.712Z,90.50
2018-05-17T20:32:54.288Z,90.80
2018-05-17T20:35:21.947Z,90.50
2018-05-17T20:37:50.014Z,90.80
2018-05-17T20:40:17.684Z,90.60
2018-05-17T20:42:45.291Z,90.70
2018-05-17T20:45:13.741Z,90.80
2018-05-17T20:47:41.621Z,90.70
2018-05-17T20:50:09.542Z,91.40
2018-05-17T20:52:37.090Z,90.70
2018-05-17T20:55:04.869Z,90.20
2018-05-17T20:57:33.287Z,90.40
2018-05-17T21:00:00.910Z,90.30
2018-05-17T21:02:28.615Z,90.00
2018-05-17T21:04:56.311Z,90.10
2018-05-17T21:07:24.182Z,90.10
2018-05-17T21:09:52.704Z,89.20
2018-05-17T21:12:20.653Z,89.10
2018-05-17T21:14:48.304Z,88.50
2018-05-17T21:17:16.120Z,89.50
2018-05-17T21:19:43.663Z,89.10
2018-05-17T21:22:12.010Z,88.90
2018-05-17T21:24:39.571Z,88.90
2018-05-17T21:27:07.174Z,89.60
2018-05-17T21:29:34.735Z,90.00
2018-05-17T22:15:44.583Z,91.10
2018-05-17T22:18:12.169Z,91.10
2018-05-17T22:20:39.679Z,91.00
2018-05-17T22:23:08.139Z,90.80
2018-05-17T22:25:35.750Z,90.80
2018-05-17T22:28:03.269Z,91.00
2018-05-17T22:30:31.573Z,91.10
2018-05-17T22:32:59.867Z,91.20
2018-05-17T22:35:27.385Z,91.20
2018-05-17T22:37:54.926Z,91.30
2018-05-17T22:40:22.436Z,91.20
2018-05-17T22:42:51.786Z,91.30
2018-05-17T22:45:19.333Z,91.20
2018-05-17T22:47:46.842Z,91.20
2018-05-17T22:50:14.366Z,91.10
2018-05-17T22:52:41.894Z,91.10
2018-05-17T22:55:10.203Z,91.20
2018-05-17T22:57:49.822Z,91.20
2018-05-17T23:00:17.311Z,91.20
2018-05-17T23:02:44.836Z,91.20
2018-05-17T23:05:13.170Z,91.30
2018-05-17T23:07:40.695Z,91.20
2018-05-17T23:10:08.975Z,91.40
2018-05-17T23:12:37.278Z,91.20
2018-05-17T23:15:04.850Z,91.20
2018-05-17T23:17:32.437Z,91.30
2018-05-17T23:19:59.993Z,91.20
2018-05-17T23:22:35.513Z,91.60
2018-05-17T23:25:03.809Z,91.40
2018-05-17T23:27:31.330Z,91.40
2018-05-17T23:29:59.628Z,91.30
2018-05-17T23:32:27.932Z,91.40
2018-05-17T23:34:55.446Z,91.40
2018-05-17T23:37:22.981Z,91.20
2018-05-17T23:39:50.610Z,91.10
2018-05-17T23:42:18.890Z,90.80
2018-05-17T23:44:47.182Z,91.00
2018-05-17T23:47:14.754Z,90.90
2018-05-17T23:49:42.285Z,91.00
2018-05-17T23:52:10.564Z,91.10
2018-05-17T23:54:38.113Z,91.10
2018-05-17T23:57:06.385Z,91.10
2018-05-17T23:59:33.914Z,91.00
